createdAt,value
2022-10-20T00:00:35.240Z,112.35
2022-10-20T00:03:04.333Z,132.32
2022-10-20T00:05:33.593Z,109.63
2022-10-20T00:08:03.075Z,113.95
2022-10-20T00:10:32.918Z,120.78
2022-10-20T00:13:02.022Z,100.78
2022-10-20T00:15:31.165Z,115.32
2022-10-20T00:18:00.163Z,114.47
2022-10-20T00:20:29.005Z,116.88
2022-10-20T00:22:58.193Z,107.88
2022-10-20T00:25:27.138Z,114.28
2022-10-20T00:27:56.400Z,109.53
2022-10-20T00:30:25.743Z,109.38
2022-10-20T00:32:55.161Z,112.55
2022-10-20T00:35:24.394Z,120.00
2022-10-20T00:37:54.068Z,108.63
2022-10-20T00:40:23.233Z,115.90
2022-10-20T00:42:52.269Z,116.93
2022-10-20T00:45:23.583Z,118.55
2022-10-20T00:48:00.661Z,121.38
2022-10-20T00:50:34.256Z,114.60
2022-10-20T00:53:04.263Z,129.25
2022-10-20T00:55:36.670Z,132.13
2022-10-20T00:58:06.407Z,131.60
2022-10-20T01:00:35.933Z,110.05
2022-10-20T01:03:08.238Z,128.60
2022-10-20T01:05:39.467Z,120.68
2022-10-20T01:08:11.852Z,123.63
2022-10-20T01:11:03.213Z,113.47
2022-10-20T01:13:58.960Z,111.75
2022-10-20T01:16:31.337Z,116.80
2022-10-20T01:22:09.226Z,113.03
2022-10-20T01:25:20.611Z,119.00
2022-10-20T01:28:13.956Z,110.18
2022-10-20T01:30:51.350Z,114.85
2022-10-20T01:33:51.616Z,104.30
2022-10-20T01:36:27.872Z,105.45
2022-10-20T01:39:01.144Z,125.50
2022-10-20T01:41:39.199Z,121.22
2022-10-20T01:44:13.590Z,123.88
2022-10-20T01:46:46.064Z,136.73
2022-10-20T01:49:16.780Z,128.05
2022-10-20T01:51:46.532Z,121.60
2022-10-20T01:54:28.332Z,117.90
2022-10-20T01:57:30.458Z,114.53
2022-10-20T02:00:13.184Z,113.30
2022-10-20T02:03:03.565Z,120.47
2022-10-20T02:06:26.904Z,113.85
2022-10-20T02:09:25.586Z,111.07
2022-10-20T02:12:22.096Z,103.72
2022-10-20T02:14:57.393Z,103.55
2022-10-20T02:17:27.787Z,125.82
2022-10-20T02:19:58.798Z,103.63
2022-10-20T02:22:28.876Z,115.80
2022-10-20T02:24:58.482Z,130.10
2022-10-20T02:27:36.102Z,124.20
2022-10-20T02:30:10.362Z,130.73
2022-10-20T02:32:43.080Z,125.90
2022-10-20T02:35:17.233Z,196.88
2022-10-20T02:37:47.289Z,148.18
2022-10-20T02:40:16.989Z,125.20
2022-10-20T02:42:46.865Z,145.80
2022-10-20T02:45:16.447Z,279.88
2022-10-20T02:47:46.019Z,428.98
2022-10-20T02:50:15.164Z,125.32
2022-10-20T02:52:44.877Z,131.50
2022-10-20T02:55:14.434Z,123.05
2022-10-20T02:57:44.190Z,125.25
2022-10-20T03:00:15.323Z,117.00
2022-10-20T03:02:44.655Z,110.05
2022-10-20T03:05:14.279Z,137.00
2022-10-20T03:10:13.490Z,116.15
2022-10-20T03:12:43.444Z,100.28
2022-10-20T03:15:13.303Z,116.20
2022-10-20T03:17:43.187Z,104.97
2022-10-20T03:20:13.136Z,100.97
2022-10-20T03:22:42.989Z,98.75
2022-10-20T03:25:12.588Z,115.75
2022-10-20T03:27:41.784Z,108.35
2022-10-20T03:30:12.048Z,114.00
2022-10-20T03:32:41.467Z,142.75
2022-10-20T03:35:12.403Z,122.90
2022-10-20T03:37:41.774Z,107.03
2022-10-20T03:40:11.502Z,109.38
2022-10-20T03:42:41.560Z,95.50
2022-10-20T03:45:13.760Z,104.85
2022-10-20T03:47:46.073Z,98.57
2022-10-20T03:50:15.793Z,99.45
2022-10-20T03:52:44.972Z,96.85
2022-10-20T03:55:15.405Z,95.07
2022-10-20T03:57:44.795Z,102.65
2022-10-20T04:00:14.842Z,110.65
2022-10-20T04:02:47.630Z,96.70
2022-10-20T04:05:20.026Z,89.10
2022-10-20T04:07:51.096Z,98.35
2022-10-20T04:10:20.799Z,96.65
2022-10-20T04:12:49.988Z,94.93
2022-10-20T04:15:20.070Z,102.78
2022-10-20T04:17:50.608Z,98.25
2022-10-20T04:20:20.178Z,81.70
2022-10-20T04:22:49.671Z,83.72
2022-10-20T04:25:19.670Z,103.55
2022-10-20T04:27:49.350Z,108.53
2022-10-20T04:30:19.273Z,87.03
2022-10-20T04:32:49.114Z,162.90
2022-10-20T04:35:19.083Z,97.85
2022-10-20T04:37:48.540Z,88.38
2022-10-20T04:40:17.960Z,80.38
2022-10-20T04:42:47.767Z,96.32
2022-10-20T04:45:17.077Z,82.15
2022-10-20T04:47:46.962Z,73.72
2022-10-20T04:50:27.143Z,95.38
2022-10-20T04:53:11.385Z,83.30
2022-10-20T04:55:40.685Z,70.73
2022-10-20T04:58:09.724Z,85.22
2022-10-20T05:00:39.895Z,71.28
2022-10-20T05:03:08.984Z,73.47
2022-10-20T05:05:38.219Z,63.03
2022-10-20T05:08:07.199Z,75.03
2022-10-20T05:10:36.824Z,73.90
2022-10-20T05:13:05.827Z,80.85
2022-10-20T05:15:35.155Z,87.72
2022-10-20T05:18:07.265Z,81.85
2022-10-20T05:23:15.529Z,64.15
2022-10-20T05:25:44.530Z,65.75
2022-10-20T05:28:14.657Z,78.43
2022-10-20T05:30:43.941Z,68.57
2022-10-20T05:33:13.085Z,76.20
2022-10-20T05:35:41.923Z,74.38
2022-10-20T05:38:11.310Z,82.78
2022-10-20T05:40:40.729Z,76.75
2022-10-20T05:43:10.779Z,67.22
2022-10-20T05:45:40.568Z,75.32
2022-10-20T05:48:09.743Z,76.60
2022-10-20T05:50:39.645Z,90.75
2022-10-20T05:53:08.942Z,73.93
2022-10-20T05:55:37.955Z,75.93
2022-10-20T05:58:07.155Z,93.15
2022-10-20T06:00:42.987Z,72.13
2022-10-20T06:03:13.927Z,81.07
2022-10-20T06:05:46.657Z,69.78
2022-10-20T06:08:16.307Z,80.47
2022-10-20T06:10:45.627Z,78.80
2022-10-20T06:13:15.194Z,70.10
2022-10-20T06:15:44.616Z,61.25
2022-10-20T06:18:13.688Z,80.05
2022-10-20T06:20:43.370Z,68.93
2022-10-20T06:23:13.207Z,70.63
2022-10-20T06:25:44.815Z,66.75
2022-10-20T06:28:14.099Z,81.03
2022-10-20T06:30:43.324Z,63.63
2022-10-20T06:33:15.953Z,91.07
2022-10-20T06:35:45.299Z,76.68
2022-10-20T06:38:14.244Z,84.70
2022-10-20T06:40:43.473Z,74.20
2022-10-20T06:43:12.496Z,104.85
2022-10-20T06:45:41.709Z,130.55
2022-10-20T06:48:11.007Z,100.78
2022-10-20T06:50:40.277Z,79.25
2022-10-20T06:53:09.351Z,83.50
2022-10-20T06:55:38.867Z,104.78
2022-10-20T06:58:08.237Z,109.93
2022-10-20T07:00:37.617Z,82.43
2022-10-20T07:03:06.870Z,93.55
2022-10-20T07:05:37.102Z,81.93
2022-10-20T07:08:27.043Z,81.60
2022-10-20T07:11:07.858Z,97.32
2022-10-20T07:13:38.665Z,181.25
2022-10-20T07:16:09.828Z,156.57
2022-10-20T07:18:39.317Z,129.73
2022-10-20T07:21:19.763Z,124.72
2022-10-20T07:23:50.624Z,86.10
2022-10-20T07:26:25.884Z,112.28
2022-10-20T07:28:58.587Z,136.75
2022-10-20T07:31:33.110Z,145.73
2022-10-20T07:36:53.071Z,131.32
2022-10-20T07:39:24.315Z,126.63
2022-10-20T07:41:53.916Z,124.47
2022-10-20T07:44:25.705Z,137.35
2022-10-20T07:46:58.376Z,157.68
2022-10-20T07:49:45.560Z,112.22
2022-10-20T07:52:17.558Z,123.45
2022-10-20T07:54:47.973Z,107.30
2022-10-20T07:57:17.717Z,112.18
2022-10-20T07:59:47.018Z,114.53
2022-10-20T08:02:18.728Z,140.57
2022-10-20T08:04:48.365Z,95.93
2022-10-20T08:07:18.018Z,145.13
2022-10-20T08:09:48.412Z,107.80
2022-10-20T08:12:17.902Z,78.32
2022-10-20T08:15:01.710Z,77.88
2022-10-20T08:17:32.609Z,83.75
2022-10-20T08:20:26.414Z,90.13
2022-10-20T08:23:00.268Z,90.32
2022-10-20T08:25:30.234Z,86.80
2022-10-20T08:27:59.868Z,118.70
2022-10-20T08:30:29.239Z,116.55
2022-10-20T08:32:58.524Z,96.72
2022-10-20T08:35:28.249Z,69.85
2022-10-20T08:37:57.333Z,63.88
2022-10-20T08:40:34.234Z,76.80
2022-10-20T08:43:32.612Z,58.35
2022-10-20T08:46:37.583Z,77.18
2022-10-20T08:49:15.309Z,67.95
2022-10-20T08:51:44.616Z,67.57
2022-10-20T08:54:16.222Z,103.85
2022-10-20T08:56:46.208Z,73.35
2022-10-20T08:59:39.173Z,91.22
2022-10-20T09:05:02.968Z,81.32
2022-10-20T09:07:52.340Z,77.30
2022-10-20T09:10:39.602Z,107.57
2022-10-20T09:16:42.225Z,77.60
2022-10-20T09:22:34.893Z,86.65
2022-10-20T09:25:05.992Z,53.78
2022-10-20T09:30:30.447Z,78.95
2022-10-20T09:33:00.012Z,80.15
2022-10-20T09:35:37.765Z,100.32
2022-10-20T09:38:12.800Z,59.92
2022-10-20T09:40:56.530Z,71.70
2022-10-20T09:43:28.312Z,54.17
2022-10-20T09:46:06.230Z,58.53
2022-10-20T09:48:48.814Z,100.57
2022-10-20T09:51:25.831Z,51.45
2022-10-20T09:54:00.855Z,53.30
2022-10-20T09:56:41.918Z,47.22
2022-10-20T09:59:37.841Z,57.28
2022-10-20T10:02:16.187Z,51.42
2022-10-20T10:04:50.758Z,63.88
2022-10-20T10:07:29.450Z,52.40
2022-10-20T10:10:21.828Z,58.58
2022-10-20T10:13:13.558Z,53.58
2022-10-20T10:15:42.959Z,71.72
2022-10-20T10:18:24.515Z,28.88
2022-10-20T10:21:08.364Z,39.83
2022-10-20T10:26:55.153Z,35.70
2022-10-20T10:29:32.840Z,32.88
2022-10-20T10:32:05.042Z,44.22
2022-10-20T10:34:52.340Z,31.90
2022-10-20T10:39:51.294Z,48.97
2022-10-20T10:42:50.725Z,40.65
2022-10-20T10:45:40.910Z,47.42
2022-10-20T10:48:33.583Z,42.38
2022-10-20T10:51:12.072Z,101.10
2022-10-20T10:53:54.482Z,50.30
2022-10-20T10:56:45.241Z,45.30
2022-10-20T10:59:42.846Z,42.67
2022-10-20T11:02:49.416Z,43.20
2022-10-20T11:05:21.799Z,52.15
2022-10-20T11:10:44.537Z,121.25
2022-10-20T11:13:26.212Z,53.15
2022-10-20T11:19:09.291Z,106.57
2022-10-20T11:21:58.501Z,69.38
2022-10-20T11:24:37.569Z,130.05
2022-10-20T11:27:17.153Z,99.88
2022-10-20T11:30:09.194Z,64.63
2022-10-20T11:33:36.926Z,58.97
2022-10-20T11:36:34.341Z,73.68
2022-10-20T11:39:05.379Z,79.13
2022-10-20T11:41:50.198Z,74.25
2022-10-20T11:44:45.797Z,117.68
2022-10-20T11:47:22.686Z,81.18
2022-10-20T11:49:53.679Z,65.95
2022-10-20T11:53:02.931Z,67.55
2022-10-20T11:55:53.634Z,49.25
2022-10-20T11:58:44.643Z,57.72
2022-10-20T12:01:36.867Z,63.58
2022-10-20T12:04:27.546Z,77.40
2022-10-20T12:07:32.822Z,73.03
2022-10-20T12:10:23.222Z,67.57
2022-10-20T12:13:35.201Z,69.68
2022-10-20T12:16:23.201Z,76.35
2022-10-20T12:19:08.062Z,69.82
2022-10-20T12:22:05.712Z,39.47
2022-10-20T12:24:43.571Z,37.45
2022-10-20T12:27:13.058Z,29.35
2022-10-20T12:29:45.008Z,36.05
2022-10-20T12:32:37.766Z,48.65
2022-10-20T12:37:44.768Z,42.42
2022-10-20T12:40:16.224Z,38.65
2022-10-20T12:42:50.799Z,33.95
2022-10-20T12:45:19.942Z,49.25
2022-10-20T12:48:02.314Z,36.35
2022-10-20T12:50:50.428Z,29.20
2022-10-20T12:53:19.700Z,30.13
2022-10-20T12:56:20.011Z,36.78
2022-10-20T12:59:25.754Z,38.13
2022-10-20T13:02:14.903Z,34.38
2022-10-20T13:05:15.811Z,30.20
2022-10-20T13:07:48.011Z,55.22
2022-10-20T13:10:32.352Z,42.45
2022-10-20T13:13:04.409Z,27.77
2022-10-20T13:15:44.531Z,38.95
2022-10-20T13:18:14.001Z,36.10
2022-10-20T13:21:24.497Z,35.60
2022-10-20T13:24:23.546Z,28.27
2022-10-20T13:26:57.315Z,32.85
2022-10-20T13:29:41.625Z,22.73
2022-10-20T13:32:35.353Z,39.55
2022-10-20T13:35:24.198Z,18.92
2022-10-20T13:38:08.729Z,36.97
2022-10-20T13:40:51.777Z,36.85
2022-10-20T13:43:28.688Z,25.48
2022-10-20T13:46:29.164Z,18.05
2022-10-20T13:49:31.054Z,25.10
2022-10-20T13:52:08.342Z,26.50
2022-10-20T13:54:45.750Z,23.13
2022-10-20T13:57:34.351Z,17.27
2022-10-20T14:00:19.272Z,19.85
2022-10-20T14:03:07.712Z,26.33
2022-10-20T14:05:40.593Z,18.85
2022-10-20T14:08:12.084Z,18.95
2022-10-20T14:10:59.687Z,23.85
2022-10-20T14:13:35.652Z,18.08
2022-10-20T14:16:17.869Z,14.85
2022-10-20T14:19:06.299Z,14.65
2022-10-20T14:21:52.364Z,31.90
2022-10-20T14:24:34.541Z,15.73
2022-10-20T14:27:06.637Z,28.10
2022-10-20T14:29:40.841Z,24.98
2022-10-20T14:32:25.051Z,23.58
2022-10-20T14:35:00.774Z,22.05
2022-10-20T14:37:34.606Z,20.90
2022-10-20T14:40:19.254Z,22.33
2022-10-20T14:42:48.816Z,28.90
2022-10-20T14:45:27.094Z,24.30
2022-10-20T14:47:59.252Z,28.90
2022-10-20T14:50:42.049Z,25.10
2022-10-20T14:53:34.861Z,31.70
2022-10-20T14:58:58.363Z,30.30
2022-10-20T15:01:30.701Z,37.72
2022-10-20T15:04:27.583Z,36.55
2022-10-20T15:07:33.934Z,32.13
2022-10-20T15:10:15.281Z,30.70
2022-10-20T15:12:49.612Z,38.72
2022-10-20T15:15:21.571Z,32.00
2022-10-20T15:18:15.463Z,32.13
2022-10-20T15:20:48.938Z,34.95
2022-10-20T15:23:29.529Z,30.27
2022-10-20T15:26:15.654Z,30.77
2022-10-20T15:28:52.225Z,40.17
2022-10-20T15:31:26.929Z,28.80
2022-10-20T15:33:57.539Z,27.00
2022-10-20T15:36:41.762Z,24.20
2022-10-20T15:39:13.225Z,32.05
2022-10-20T15:41:42.877Z,16.05
2022-10-20T15:44:22.519Z,17.30
2022-10-20T15:46:56.766Z,24.73
2022-10-20T15:49:26.649Z,24.98
2022-10-20T15:51:55.752Z,18.10
2022-10-20T15:54:24.758Z,29.60
2022-10-20T15:56:53.997Z,23.98
2022-10-20T15:59:23.081Z,37.33
2022-10-20T16:01:52.791Z,38.80
2022-10-20T16:04:32.453Z,27.90
2022-10-20T16:07:03.338Z,32.70
2022-10-20T16:09:32.594Z,50.17
2022-10-20T16:12:01.469Z,37.08
2022-10-20T16:14:30.653Z,36.40
2022-10-20T16:17:02.663Z,31.83
2022-10-20T16:19:50.777Z,22.25
2022-10-20T16:22:19.946Z,18.48
2022-10-20T16:24:49.343Z,26.20
2022-10-20T16:27:18.504Z,19.85
2022-10-20T16:29:49.777Z,20.92
2022-10-20T16:32:19.646Z,32.13
2022-10-20T16:34:48.662Z,36.88
2022-10-20T16:37:17.967Z,32.05
2022-10-20T16:39:47.312Z,31.75
2022-10-20T16:42:16.591Z,28.13
2022-10-20T16:44:46.940Z,38.20
2022-10-20T16:47:16.225Z,29.30
2022-10-20T16:49:45.489Z,26.88
2022-10-20T16:52:14.611Z,20.05
2022-10-20T16:54:44.587Z,24.73
2022-10-20T16:57:14.107Z,37.38
2022-10-20T16:59:44.787Z,28.40
2022-10-20T17:02:14.089Z,30.58
2022-10-20T17:04:43.373Z,43.53
2022-10-20T17:07:13.077Z,37.17
2022-10-20T17:09:42.103Z,35.53
2022-10-20T17:12:11.545Z,34.45
2022-10-20T17:14:41.846Z,30.08
2022-10-20T17:17:11.071Z,51.67
2022-10-20T17:19:42.002Z,17.45
2022-10-20T17:24:45.688Z,19.15
2022-10-20T17:27:15.307Z,129.63
2022-10-20T17:29:44.253Z,24.77
2022-10-20T17:32:15.913Z,20.02
2022-10-20T17:34:47.949Z,19.30
2022-10-20T17:37:18.458Z,25.20
2022-10-20T17:39:48.083Z,22.02
2022-10-20T17:42:16.890Z,21.95
2022-10-20T17:44:46.153Z,31.92
2022-10-20T17:47:15.266Z,25.13
2022-10-20T17:49:44.278Z,26.52
2022-10-20T17:52:13.568Z,21.65
2022-10-20T17:54:42.597Z,21.38
2022-10-20T17:57:11.689Z,17.73
2022-10-20T17:59:52.398Z,23.55
2022-10-20T18:02:27.096Z,31.63
2022-10-20T18:04:56.156Z,32.25
2022-10-20T18:07:25.226Z,29.70
2022-10-20T18:09:55.150Z,36.95
2022-10-20T18:12:24.167Z,21.38
2022-10-20T18:14:53.795Z,25.45
2022-10-20T18:17:23.527Z,26.38
2022-10-20T18:19:53.532Z,28.63
2022-10-20T18:22:22.990Z,29.73
2022-10-20T18:24:51.783Z,26.20
2022-10-20T18:27:21.015Z,28.98
2022-10-20T18:29:49.920Z,34.78
2022-10-20T18:32:19.315Z,21.15
2022-10-20T18:34:48.761Z,17.20
2022-10-20T18:37:20.461Z,16.73
2022-10-20T18:39:49.414Z,17.95
2022-10-20T18:42:18.456Z,16.23
2022-10-20T18:44:47.918Z,14.52
2022-10-20T18:47:16.772Z,13.15
2022-10-20T18:49:45.837Z,11.98
2022-10-20T18:52:14.919Z,13.93
2022-10-20T18:54:44.062Z,10.30
2022-10-20T18:57:13.395Z,16.40
2022-10-20T18:59:42.626Z,12.07
2022-10-20T19:02:12.037Z,18.38
2022-10-20T19:04:41.239Z,17.08
2022-10-20T19:07:10.417Z,17.98
2022-10-20T19:09:39.335Z,20.15
2022-10-20T19:12:10.453Z,19.05
2022-10-20T19:14:39.765Z,25.70
2022-10-20T19:17:11.331Z,19.55
2022-10-20T19:19:42.608Z,17.10
2022-10-20T19:22:12.236Z,19.45
2022-10-20T19:24:41.634Z,12.88
2022-10-20T19:27:27.500Z,24.42
2022-10-20T19:29:56.935Z,23.60
2022-10-20T19:32:26.005Z,31.27
2022-10-20T19:34:55.325Z,40.25
2022-10-20T19:37:25.269Z,40.42
2022-10-20T19:39:55.031Z,36.13
2022-10-20T19:42:24.070Z,39.97
2022-10-20T19:44:53.346Z,34.78
2022-10-20T19:47:23.339Z,27.92
2022-10-20T19:49:52.251Z,33.58
2022-10-20T19:52:21.349Z,37.28
2022-10-20T19:54:50.626Z,35.53
2022-10-20T19:57:19.429Z,44.38
2022-10-20T19:59:48.657Z,35.60
2022-10-20T20:02:17.739Z,34.65
2022-10-20T20:04:46.618Z,33.47
2022-10-20T20:09:50.836Z,39.85
2022-10-20T20:12:20.959Z,35.45
2022-10-20T20:14:50.043Z,40.42
2022-10-20T20:17:19.878Z,43.10
2022-10-20T20:19:48.696Z,43.10
2022-10-20T20:22:17.997Z,46.35
2022-10-20T20:24:46.972Z,36.30
2022-10-20T20:27:16.015Z,40.28
2022-10-20T20:29:45.122Z,39.45
2022-10-20T20:32:14.430Z,30.42
2022-10-20T20:34:43.719Z,21.75
2022-10-20T20:37:12.628Z,23.33
2022-10-20T20:39:41.659Z,21.45
2022-10-20T20:42:10.491Z,20.58
2022-10-20T20:44:39.759Z,21.70
2022-10-20T20:47:08.742Z,24.65
2022-10-20T20:49:37.868Z,23.10
2022-10-20T20:52:06.905Z,20.90
2022-10-20T20:54:35.804Z,21.45
2022-10-20T20:57:05.121Z,23.65
2022-10-20T20:59:34.140Z,24.92
2022-10-20T21:02:02.873Z,32.47
2022-10-20T21:04:32.045Z,35.22
2022-10-20T21:07:02.520Z,38.97
2022-10-20T21:09:32.518Z,39.13
2022-10-20T21:12:02.191Z,39.17
2022-10-20T21:14:32.024Z,31.00
2022-10-20T21:17:02.134Z,44.67
2022-10-20T21:19:31.391Z,34.25
2022-10-20T21:22:02.419Z,38.75
2022-10-20T21:24:31.589Z,36.00
2022-10-20T21:27:01.092Z,31.52
2022-10-20T21:29:30.534Z,29.95
2022-10-20T21:31:59.500Z,41.65
2022-10-20T21:34:29.110Z,46.30
2022-10-20T21:36:58.262Z,49.75
2022-10-20T21:39:27.369Z,54.45
2022-10-20T21:41:56.480Z,62.05
2022-10-20T21:44:25.857Z,55.17
2022-10-20T21:46:54.736Z,46.30
2022-10-20T21:49:28.063Z,50.78
2022-10-20T21:51:58.676Z,47.78
2022-10-20T21:54:30.219Z,47.35
2022-10-20T21:56:59.496Z,37.83
2022-10-20T21:59:31.175Z,34.90
2022-10-20T22:02:02.288Z,34.85
2022-10-20T22:04:32.479Z,30.13
2022-10-20T22:07:01.499Z,37.67
2022-10-20T22:09:31.350Z,37.63
2022-10-20T22:12:01.249Z,48.10
2022-10-20T22:14:31.443Z,50.90
2022-10-20T22:17:01.066Z,58.40
2022-10-20T22:19:31.360Z,67.55
2022-10-20T22:22:00.676Z,77.85
2022-10-20T22:24:31.614Z,83.15
2022-10-20T22:27:00.538Z,93.05
2022-10-20T22:29:29.905Z,94.82
2022-10-20T22:31:58.791Z,88.35
2022-10-20T22:34:27.840Z,85.75
2022-10-20T22:36:57.270Z,79.97
2022-10-20T22:39:26.521Z,89.13
2022-10-20T22:41:55.467Z,102.55
2022-10-20T22:44:24.545Z,84.95
2022-10-20T22:46:53.900Z,93.00
2022-10-20T22:49:22.901Z,71.43
2022-10-20T22:51:51.946Z,76.22
2022-10-20T22:54:20.717Z,71.45
2022-10-20T22:56:53.790Z,52.63
2022-10-20T22:59:22.827Z,62.45
2022-10-20T23:01:53.124Z,58.47
2022-10-20T23:04:22.369Z,60.80
2022-10-20T23:06:51.973Z,47.53
2022-10-20T23:09:21.351Z,44.85
2022-10-20T23:11:50.443Z,53.15
2022-10-20T23:14:19.551Z,43.67
2022-10-20T23:16:48.963Z,40.72
2022-10-20T23:19:18.106Z,44.88
2022-10-20T23:21:47.104Z,39.65
2022-10-20T23:24:16.191Z,49.85
2022-10-20T23:26:45.648Z,47.53
2022-10-20T23:29:14.671Z,41.90
2022-10-20T23:31:43.644Z,42.75
2022-10-20T23:34:13.369Z,43.35
2022-10-20T23:36:42.493Z,40.30
2022-10-20T23:39:11.469Z,49.13
2022-10-20T23:41:40.841Z,40.30
2022-10-20T23:44:10.246Z,45.22
2022-10-20T23:46:39.401Z,40.85
2022-10-20T23:49:08.532Z,36.35
2022-10-20T23:51:37.708Z,38.00
2022-10-20T23:54:06.755Z,39.10
2022-10-20T23:56:35.934Z,35.90
2022-10-20T23:59:04.887Z,39.40
